Time;durP1;ratioP1;P1;durP2;ratioP2;P2;SDS_P1;SDS_P2;PMS_P1;PMS_P2;Temp;Humidity;BMP_temperature;BMP_pressure;BME280_temperature;BME280_humidity;BME280_pressure;Samples;Min_cycle;Max_cycle;Signal;HPM_P1;HPM_P2
2022/10/29 00:00:44;;;;;;;10.70;6.90;;;;;;;;;;5023822;28;20429;-43
2022/10/29 00:03:10;;;;;;;16.50;6.13;;;;;;;;;;5019869;28;20496;-43
2022/10/29 00:05:36;;;;;;;15.07;6.70;;;;;;;;;;5026065;28;20846;-43
2022/10/29 00:08:02;;;;;;;13.90;7.13;;;;;;;;;;5018879;28;20414;-44
2022/10/29 00:10:28;;;;;;;13.17;8.43;;;;;;;;;;5025963;28;20898;-44
2022/10/29 00:12:54;;;;;;;18.47;6.23;;;;;;;;;;5023027;28;20464;-43
2022/10/29 00:15:20;;;;;;;14.23;6.60;;;;;;;;;;5025033;28;20820;-43
2022/10/29 00:17:46;;;;;;;14.20;6.70;;;;;;;;;;5022675;28;20437;-43
2022/10/29 00:20:12;;;;;;;14.10;7.10;;;;;;;;;;5023225;28;20389;-43
2022/10/29 00:22:38;;;;;;;22.70;7.20;;;;;;;;;;5022559;28;20836;-43
2022/10/29 00:25:04;;;;;;;18.23;6.67;;;;;;;;;;5028261;28;20413;-43
2022/10/29 00:27:30;;;;;;;12.90;6.40;;;;;;;;;;5021075;28;20421;-43
2022/10/29 00:29:56;;;;;;;18.30;7.43;;;;;;;;;;5022082;28;20411;-43
2022/10/29 00:32:22;;;;;;;15.67;7.57;;;;;;;;;;5023237;28;20426;-42
2022/10/29 00:34:48;;;;;;;21.67;6.97;;;;;;;;;;5021575;28;20476;-43
2022/10/29 00:37:14;;;;;;;17.53;9.07;;;;;;;;;;5023832;28;20419;-44
2022/10/29 00:39:40;;;;;;;16.63;9.23;;;;;;;;;;5019948;28;20419;-43
2022/10/29 00:42:13;;;;;;;19.00;7.17;;;;;;;;;;5023652;28;20465;-43
2022/10/29 00:44:39;;;;;;;21.57;7.43;;;;;;;;;;5020184;28;20470;-43
2022/10/29 00:47:23;;;;;;;19.33;6.93;;;;;;;;;;5016566;28;20415;-43
2022/10/29 00:49:59;;;;;;;12.70;7.00;;;;;;;;;;5022562;28;20405;-43
2022/10/29 00:52:27;;;;;;;13.57;8.03;;;;;;;;;;5014325;28;20411;-42
2022/10/29 00:54:54;;;;;;;18.73;7.10;;;;;;;;;;5021783;28;20438;-43
2022/10/29 00:57:25;;;;;;;19.17;8.10;;;;;;;;;;5024624;28;20381;-43
2022/10/29 00:59:51;;;;;;;15.03;7.80;;;;;;;;;;5017649;28;20422;-43
2022/10/29 01:02:18;;;;;;;15.93;7.27;;;;;;;;;;5022366;28;20461;-43
2022/10/29 01:04:44;;;;;;;15.87;7.33;;;;;;;;;;5020773;28;20559;-42
2022/10/29 01:07:10;;;;;;;12.43;7.30;;;;;;;;;;5027485;28;20433;-43
2022/10/29 01:09:36;;;;;;;12.90;7.47;;;;;;;;;;5022944;28;20768;-43
2022/10/29 01:12:11;;;;;;;15.30;7.40;;;;;;;;;;5019817;28;20415;-43
2022/10/29 01:14:49;;;;;;;11.73;8.03;;;;;;;;;;5023712;28;20461;-43
2022/10/29 01:17:27;;;;;;;18.80;7.30;;;;;;;;;;5024010;28;20475;-44
2022/10/29 01:19:53;;;;;;;18.20;7.00;;;;;;;;;;5021664;28;20500;-43
2022/10/29 01:22:24;;;;;;;13.13;7.10;;;;;;;;;;5024315;28;20450;-43
2022/10/29 01:24:59;;;;;;;16.40;8.53;;;;;;;;;;5021790;28;20483;-43
2022/10/29 01:27:40;;;;;;;12.23;7.00;;;;;;;;;;5019077;28;20882;-43
2022/10/29 01:30:16;;;;;;;12.10;7.60;;;;;;;;;;5022271;28;20498;-43
2022/10/29 01:32:48;;;;;;;12.00;6.80;;;;;;;;;;5020952;28;20563;-43
2022/10/29 01:35:18;;;;;;;10.50;6.40;;;;;;;;;;5027289;28;20469;-44
2022/10/29 01:37:57;;;;;;;20.93;8.30;;;;;;;;;;5023242;28;20470;-43
2022/10/29 01:40:25;;;;;;;17.63;7.67;;;;;;;;;;5011448;28;20469;-43
2022/10/29 01:43:18;;;;;;;16.07;8.40;;;;;;;;;;5014964;28;20421;-43
2022/10/29 01:45:50;;;;;;;15.43;7.67;;;;;;;;;;5029831;28;20855;-43
2022/10/29 01:48:19;;;;;;;13.60;7.90;;;;;;;;;;5020049;28;20522;-43
2022/10/29 01:50:49;;;;;;;14.20;7.33;;;;;;;;;;5022375;28;21054;-43
2022/10/29 01:53:15;;;;;;;22.33;8.33;;;;;;;;;;5023266;28;20442;-43
2022/10/29 01:55:41;;;;;;;11.47;7.10;;;;;;;;;;5021105;28;20447;-42
2022/10/29 01:58:08;;;;;;;13.57;7.83;;;;;;;;;;5022449;28;20464;-43
2022/10/29 02:00:50;;;;;;;16.40;8.00;;;;;;;;;;5022734;28;20425;-43
2022/10/29 02:03:33;;;;;;;25.93;8.00;;;;;;;;;;5021516;28;20390;-43
2022/10/29 02:06:25;;;;;;;16.93;8.10;;;;;;;;;;5025172;28;20893;-43
2022/10/29 02:08:56;;;;;;;21.87;8.03;;;;;;;;;;5010389;28;20410;-44
2022/10/29 02:11:27;;;;;;;18.50;7.90;;;;;;;;;;5024321;28;20384;-43
2022/10/29 02:13:56;;;;;;;17.20;8.30;;;;;;;;;;5023939;28;20419;-43
2022/10/29 02:16:23;;;;;;;21.43;9.57;;;;;;;;;;5022230;28;20413;-43
2022/10/29 02:18:49;;;;;;;17.07;8.27;;;;;;;;;;5021734;28;20413;-42
2022/10/29 02:21:16;;;;;;;23.10;9.43;;;;;;;;;;5023178;28;20435;-43
2022/10/29 02:23:42;;;;;;;19.10;8.90;;;;;;;;;;5020742;28;20481;-43
2022/10/29 02:26:08;;;;;;;15.17;8.30;;;;;;;;;;5021779;28;20414;-43
2022/10/29 02:28:34;;;;;;;14.00;7.77;;;;;;;;;;5020445;28;20400;-43
2022/10/29 02:30:59;;;;;;;15.90;7.50;;;;;;;;;;5026483;28;20784;-43
2022/10/29 02:33:25;;;;;;;19.10;8.00;;;;;;;;;;5020729;28;20463;-44
2022/10/29 02:35:51;;;;;;;19.87;8.20;;;;;;;;;;5019410;28;20411;-43
2022/10/29 02:38:17;;;;;;;15.83;8.77;;;;;;;;;;5021352;28;20409;-43
2022/10/29 02:40:43;;;;;;;21.40;7.63;;;;;;;;;;5020119;28;20452;-43
2022/10/29 02:43:09;;;;;;;15.67;7.23;;;;;;;;;;5021939;28;20444;-43
2022/10/29 02:45:35;;;;;;;15.20;8.10;;;;;;;;;;5024562;28;20402;-43
2022/10/29 02:48:01;;;;;;;13.90;7.50;;;;;;;;;;5025018;28;20399;-43
2022/10/29 02:50:27;;;;;;;12.80;8.73;;;;;;;;;;5019280;28;20389;-43
2022/10/29 02:52:53;;;;;;;13.40;7.70;;;;;;;;;;5017100;28;20436;-43
2022/10/29 02:55:19;;;;;;;16.13;8.70;;;;;;;;;;5023019;28;20523;-42
2022/10/29 02:57:45;;;;;;;14.30;7.57;;;;;;;;;;5023221;28;20385;-43
2022/10/29 03:00:12;;;;;;;17.07;7.87;;;;;;;;;;5021879;28;20408;-43
2022/10/29 03:02:38;;;;;;;24.87;9.80;;;;;;;;;;5022647;28;20776;-43
2022/10/29 03:05:04;;;;;;;14.90;8.23;;;;;;;;;;5022319;28;20418;-43
2022/10/29 03:07:34;;;;;;;19.07;8.97;;;;;;;;;;5018105;28;20409;-43
2022/10/29 03:09:59;;;;;;;19.43;7.53;;;;;;;;;;5022630;28;20397;-43
2022/10/29 03:12:25;;;;;;;22.97;9.10;;;;;;;;;;5022218;28;20976;-42
2022/10/29 03:14:51;;;;;;;14.67;8.10;;;;;;;;;;5020678;28;20777;-43
2022/10/29 03:17:17;;;;;;;29.00;8.90;;;;;;;;;;5022732;28;20821;-43
2022/10/29 03:19:43;;;;;;;15.37;8.20;;;;;;;;;;5019998;28;20433;-43
2022/10/29 03:22:09;;;;;;;14.63;9.00;;;;;;;;;;5021285;28;20444;-43
2022/10/29 03:24:35;;;;;;;18.73;8.47;;;;;;;;;;5019646;28;20435;-43
2022/10/29 03:27:01;;;;;;;15.63;8.33;;;;;;;;;;5026198;28;20438;-42
2022/10/29 03:29:27;;;;;;;22.60;10.37;;;;;;;;;;5020413;28;20412;-43
2022/10/29 03:31:53;;;;;;;22.53;8.90;;;;;;;;;;5018761;28;20415;-43
2022/10/29 03:34:19;;;;;;;18.43;7.77;;;;;;;;;;5021196;28;20422;-43
2022/10/29 03:36:45;;;;;;;17.50;7.77;;;;;;;;;;5019742;28;20378;-43
2022/10/29 03:39:11;;;;;;;20.80;7.43;;;;;;;;;;5019503;28;20389;-43
2022/10/29 03:41:37;;;;;;;20.40;10.00;;;;;;;;;;5019508;28;20469;-43
2022/10/29 03:44:03;;;;;;;12.00;8.30;;;;;;;;;;5024370;28;20494;-43
2022/10/29 03:46:29;;;;;;;15.23;9.70;;;;;;;;;;5019372;28;20422;-42
2022/10/29 03:48:55;;;;;;;23.77;9.07;;;;;;;;;;5016712;28;20379;-43
2022/10/29 03:51:21;;;;;;;21.90;10.10;;;;;;;;;;5019516;28;20416;-42
2022/10/29 03:53:46;;;;;;;21.53;7.97;;;;;;;;;;5019230;28;20415;-42
2022/10/29 03:56:13;;;;;;;23.67;9.50;;;;;;;;;;5021727;28;20873;-43
2022/10/29 03:58:38;;;;;;;16.97;9.73;;;;;;;;;;5022239;28;20487;-42
2022/10/29 04:01:06;;;;;;;15.73;7.90;;;;;;;;;;5022534;28;20524;-43
2022/10/29 04:03:33;;;;;;;17.90;8.77;;;;;;;;;;5018002;28;20425;-43
2022/10/29 04:06:00;;;;;;;18.10;8.80;;;;;;;;;;5015663;28;20535;-44
2022/10/29 04:08:26;;;;;;;14.40;9.17;;;;;;;;;;5024301;28;20798;-43
2022/10/29 04:10:52;;;;;;;22.03;9.83;;;;;;;;;;5021200;28;20393;-44
2022/10/29 04:13:18;;;;;;;20.07;8.97;;;;;;;;;;5023300;28;20379;-43
2022/10/29 04:15:44;;;;;;;17.90;8.80;;;;;;;;;;5020288;28;20936;-44
2022/10/29 04:18:11;;;;;;;17.23;9.03;;;;;;;;;;5025923;28;20404;-44
2022/10/29 04:20:38;;;;;;;19.00;8.70;;;;;;;;;;5021112;28;20428;-44
2022/10/29 04:23:03;;;;;;;20.03;8.77;;;;;;;;;;5026159;28;20394;-43
2022/10/29 04:25:29;;;;;;;17.90;9.10;;;;;;;;;;5024889;28;20428;-44
2022/10/29 04:27:56;;;;;;;18.67;8.87;;;;;;;;;;5022454;28;20382;-43
2022/10/29 04:30:23;;;;;;;17.80;10.23;;;;;;;;;;5025264;28;20539;-44
2022/10/29 04:32:49;;;;;;;19.63;9.20;;;;;;;;;;5023755;28;20438;-44
2022/10/29 04:35:15;;;;;;;19.80;9.63;;;;;;;;;;5023615;28;20436;-43
2022/10/29 04:37:41;;;;;;;18.03;10.03;;;;;;;;;;5022470;28;20451;-44
2022/10/29 04:40:07;;;;;;;21.93;10.10;;;;;;;;;;5025236;28;20425;-43
2022/10/29 04:42:36;;;;;;;23.10;9.50;;;;;;;;;;5023763;28;20462;-44
2022/10/29 04:45:03;;;;;;;16.33;9.37;;;;;;;;;;5020327;28;20844;-43
2022/10/29 04:47:28;;;;;;;19.47;8.60;;;;;;;;;;5022724;28;20495;-43
2022/10/29 04:49:54;;;;;;;18.33;8.70;;;;;;;;;;5023032;28;20801;-43
2022/10/29 04:52:20;;;;;;;17.23;9.13;;;;;;;;;;5026384;28;20781;-43
2022/10/29 04:54:46;;;;;;;17.80;9.33;;;;;;;;;;5024793;28;20848;-43
2022/10/29 04:57:12;;;;;;;11.30;7.57;;;;;;;;;;5026885;28;20392;-43
2022/10/29 04:59:38;;;;;;;11.97;8.47;;;;;;;;;;5021959;28;20953;-43
2022/10/29 05:02:04;;;;;;;12.40;8.83;;;;;;;;;;5018088;28;20545;-43
2022/10/29 05:04:30;;;;;;;29.50;9.47;;;;;;;;;;5025997;28;20439;-43
2022/10/29 05:06:56;;;;;;;14.77;7.73;;;;;;;;;;5023417;28;20385;-44
2022/10/29 05:09:22;;;;;;;18.07;9.30;;;;;;;;;;5025991;28;20381;-43
2022/10/29 05:11:48;;;;;;;17.00;8.87;;;;;;;;;;5022893;28;20396;-43
2022/10/29 05:14:14;;;;;;;16.60;9.10;;;;;;;;;;5024638;28;20446;-43
2022/10/29 05:16:40;;;;;;;27.83;9.63;;;;;;;;;;5020607;28;20485;-43
2022/10/29 05:19:06;;;;;;;19.23;9.17;;;;;;;;;;5024799;28;20384;-44
2022/10/29 05:21:32;;;;;;;19.40;10.07;;;;;;;;;;5024282;28;20463;-44
2022/10/29 05:23:58;;;;;;;35.30;12.20;;;;;;;;;;5021027;28;20794;-43
2022/10/29 05:26:24;;;;;;;26.90;9.83;;;;;;;;;;5023798;28;20431;-43
2022/10/29 05:28:50;;;;;;;29.77;11.03;;;;;;;;;;5021943;28;20800;-44
2022/10/29 05:31:16;;;;;;;17.30;9.67;;;;;;;;;;5022690;28;20408;-44
2022/10/29 05:33:42;;;;;;;19.23;9.23;;;;;;;;;;5022086;28;20398;-44
2022/10/29 05:36:08;;;;;;;23.43;10.13;;;;;;;;;;5027496;28;20417;-44
2022/10/29 05:38:34;;;;;;;16.00;8.50;;;;;;;;;;5023142;28;20429;-44
2022/10/29 05:41:00;;;;;;;24.43;8.50;;;;;;;;;;5019097;28;20465;-44
2022/10/29 05:43:26;;;;;;;24.83;8.70;;;;;;;;;;5021726;28;20404;-43
2022/10/29 05:45:53;;;;;;;19.37;9.00;;;;;;;;;;5021684;28;20402;-44
2022/10/29 05:48:18;;;;;;;16.10;8.47;;;;;;;;;;5025026;28;20462;-44
2022/10/29 05:50:45;;;;;;;23.47;8.40;;;;;;;;;;5024062;28;20484;-44
2022/10/29 05:53:12;;;;;;;13.50;8.87;;;;;;;;;;5025557;28;20427;-44
2022/10/29 05:55:38;;;;;;;10.00;6.97;;;;;;;;;;5021300;28;20409;-44
2022/10/29 05:58:06;;;;;;;15.33;8.37;;;;;;;;;;5017302;28;20419;-43
2022/10/29 06:00:33;;;;;;;16.63;9.13;;;;;;;;;;5025000;28;20480;-43
2022/10/29 06:02:59;;;;;;;10.80;7.47;;;;;;;;;;5022116;28;20391;-44
2022/10/29 06:05:25;;;;;;;17.13;8.17;;;;;;;;;;5024477;28;20428;-44
2022/10/29 06:07:55;;;;;;;19.20;8.30;;;;;;;;;;5021592;28;20385;-44
2022/10/29 06:10:21;;;;;;;18.20;9.00;;;;;;;;;;5023427;28;20708;-44
2022/10/29 06:12:47;;;;;;;15.77;7.20;;;;;;;;;;5020581;28;20413;-44
2022/10/29 06:15:13;;;;;;;13.40;7.30;;;;;;;;;;5022061;28;20402;-43
2022/10/29 06:17:40;;;;;;;15.07;7.83;;;;;;;;;;5024181;28;20552;-44
2022/10/29 06:20:06;;;;;;;16.33;8.07;;;;;;;;;;5019848;28;20884;-44
2022/10/29 06:22:32;;;;;;;10.27;6.80;;;;;;;;;;5021709;28;20458;-43
2022/10/29 06:24:58;;;;;;;10.73;7.00;;;;;;;;;;5021160;28;20403;-43
2022/10/29 06:27:24;;;;;;;18.47;9.27;;;;;;;;;;5020936;28;20390;-43
2022/10/29 06:29:50;;;;;;;13.37;7.67;;;;;;;;;;5020652;28;20786;-45
2022/10/29 06:32:16;;;;;;;21.13;7.73;;;;;;;;;;5026500;28;21819;-43
2022/10/29 06:34:42;;;;;;;15.57;7.90;;;;;;;;;;5023144;28;20414;-43
2022/10/29 06:37:08;;;;;;;24.37;7.73;;;;;;;;;;5017117;28;20418;-44
2022/10/29 06:39:34;;;;;;;18.87;9.40;;;;;;;;;;5018860;28;20812;-43
2022/10/29 06:42:00;;;;;;;20.93;8.97;;;;;;;;;;5011645;28;20473;-43
2022/10/29 06:44:26;;;;;;;18.90;8.20;;;;;;;;;;5018655;28;20436;-44
2022/10/29 06:46:52;;;;;;;15.17;9.90;;;;;;;;;;5020189;28;20945;-43
2022/10/29 06:49:18;;;;;;;17.00;9.33;;;;;;;;;;5022917;28;20410;-44
2022/10/29 06:51:44;;;;;;;25.33;9.63;;;;;;;;;;5019120;28;20408;-43
2022/10/29 06:54:10;;;;;;;22.97;11.00;;;;;;;;;;5021992;28;20509;-44
2022/10/29 06:56:36;;;;;;;14.67;8.90;;;;;;;;;;5023849;28;20385;-44
2022/10/29 06:59:02;;;;;;;17.20;7.70;;;;;;;;;;5014940;28;20449;-43
2022/10/29 07:01:31;;;;;;;22.47;8.33;;;;;;;;;;5020131;28;20461;-46
2022/10/29 07:03:57;;;;;;;16.63;8.20;;;;;;;;;;5018665;28;20438;-44
2022/10/29 07:06:23;;;;;;;24.37;8.70;;;;;;;;;;5022110;28;20545;-43
2022/10/29 07:08:49;;;;;;;18.97;8.00;;;;;;;;;;5020974;28;20447;-43
2022/10/29 07:11:15;;;;;;;16.83;8.50;;;;;;;;;;5011962;28;20764;-42
2022/10/29 07:13:41;;;;;;;14.60;7.70;;;;;;;;;;5015539;28;20472;-43
2022/10/29 07:16:07;;;;;;;18.63;8.30;;;;;;;;;;5015302;28;20515;-43
2022/10/29 07:18:33;;;;;;;22.03;8.47;;;;;;;;;;5020899;28;20425;-43
2022/10/29 07:21:01;;;;;;;17.67;8.10;;;;;;;;;;5019649;28;20459;-44
2022/10/29 07:23:27;;;;;;;27.03;9.30;;;;;;;;;;5016003;28;20386;-43
2022/10/29 07:25:52;;;;;;;15.97;7.50;;;;;;;;;;5022495;28;20458;-44
2022/10/29 07:28:19;;;;;;;16.60;8.43;;;;;;;;;;5021451;28;20387;-43
2022/10/29 07:30:47;;;;;;;16.60;8.70;;;;;;;;;;5015423;28;20486;-44
2022/10/29 07:33:13;;;;;;;16.20;7.70;;;;;;;;;;5020794;28;20476;-43
2022/10/29 07:35:39;;;;;;;16.97;8.17;;;;;;;;;;5017886;28;20444;-43
2022/10/29 07:38:06;;;;;;;15.57;8.07;;;;;;;;;;5014667;28;20400;-43
2022/10/29 07:40:32;;;;;;;16.80;6.70;;;;;;;;;;5018129;28;20389;-44
2022/10/29 07:42:59;;;;;;;13.53;7.30;;;;;;;;;;5019387;28;20392;-43
2022/10/29 07:45:25;;;;;;;12.00;7.03;;;;;;;;;;5022929;28;20516;-42
2022/10/29 07:47:58;;;;;;;14.93;7.60;;;;;;;;;;5015904;28;20442;-43
2022/10/29 07:50:24;;;;;;;9.60;7.30;;;;;;;;;;5009331;28;20389;-44
2022/10/29 07:52:50;;;;;;;21.60;7.80;;;;;;;;;;5021398;28;20595;-43
2022/10/29 07:55:16;;;;;;;16.23;7.73;;;;;;;;;;5025588;28;21260;-43
2022/10/29 07:57:42;;;;;;;12.20;6.97;;;;;;;;;;5023018;28;20825;-43
2022/10/29 08:00:09;;;;;;;13.53;8.07;;;;;;;;;;5023266;28;20415;-43
2022/10/29 08:02:35;;;;;;;16.67;7.40;;;;;;;;;;5023442;28;20533;-44
2022/10/29 08:05:01;;;;;;;18.47;7.87;;;;;;;;;;5023698;28;20480;-44
2022/10/29 08:07:27;;;;;;;14.70;7.03;;;;;;;;;;5022611;28;20752;-43
2022/10/29 08:09:53;;;;;;;13.10;6.90;;;;;;;;;;5028268;28;20396;-43
2022/10/29 08:12:20;;;;;;;12.67;6.30;;;;;;;;;;5022509;28;20413;-43
2022/10/29 08:14:46;;;;;;;12.70;6.33;;;;;;;;;;5022576;28;20844;-43
2022/10/29 08:17:12;;;;;;;15.50;6.83;;;;;;;;;;5023770;28;20418;-43
2022/10/29 08:19:37;;;;;;;11.67;6.60;;;;;;;;;;5022553;28;20747;-43
2022/10/29 08:22:03;;;;;;;14.37;6.23;;;;;;;;;;5023317;28;20894;-43
2022/10/29 08:24:29;;;;;;;16.67;6.73;;;;;;;;;;5025083;28;20850;-43
2022/10/29 08:26:55;;;;;;;8.87;5.67;;;;;;;;;;5026415;28;20411;-43
2022/10/29 08:29:21;;;;;;;9.93;5.53;;;;;;;;;;5020215;28;20404;-43
2022/10/29 08:31:47;;;;;;;15.07;4.90;;;;;;;;;;5019720;28;20384;-43
2022/10/29 08:34:13;;;;;;;16.90;6.27;;;;;;;;;;5028232;28;20785;-43
2022/10/29 08:36:41;;;;;;;12.50;5.53;;;;;;;;;;5020641;28;20470;-43
2022/10/29 08:39:07;;;;;;;14.90;5.03;;;;;;;;;;5017047;28;20906;-43
2022/10/29 08:41:51;;;;;;;18.30;6.20;;;;;;;;;;5023462;28;20530;-44
2022/10/29 08:44:26;;;;;;;9.03;4.50;;;;;;;;;;5009780;28;20861;-43
2022/10/29 08:46:55;;;;;;;11.13;4.70;;;;;;;;;;5021950;28;20881;-43
2022/10/29 08:49:26;;;;;;;10.57;5.47;;;;;;;;;;5018933;28;20420;-43
2022/10/29 08:51:54;;;;;;;10.23;5.50;;;;;;;;;;5025193;28;20417;-43
2022/10/29 08:54:23;;;;;;;8.03;5.23;;;;;;;;;;5042038;28;20796;-43
2022/10/29 08:56:55;;;;;;;13.47;5.57;;;;;;;;;;5025975;28;20469;-43
2022/10/29 08:59:22;;;;;;;11.77;4.70;;;;;;;;;;5003902;28;20452;-43
2022/10/29 09:01:48;;;;;;;14.03;5.00;;;;;;;;;;5004392;28;20454;-43
2022/10/29 09:04:26;;;;;;;7.53;4.73;;;;;;;;;;5015242;28;20830;-43
2022/10/29 09:07:11;;;;;;;10.83;5.13;;;;;;;;;;5022621;28;20452;-43
2022/10/29 09:09:43;;;;;;;10.27;4.90;;;;;;;;;;5015383;28;20418;-44
2022/10/29 09:12:18;;;;;;;5.63;4.40;;;;;;;;;;5022834;28;20418;-44
2022/10/29 09:14:44;;;;;;;10.30;5.27;;;;;;;;;;5020343;28;20483;-43
2022/10/29 09:17:18;;;;;;;13.70;5.83;;;;;;;;;;5019229;28;20422;-44
2022/10/29 09:19:47;;;;;;;11.33;4.50;;;;;;;;;;5012195;28;20481;-43
2022/10/29 09:22:34;;;;;;;11.90;5.03;;;;;;;;;;5023118;28;20969;-43
2022/10/29 09:25:14;;;;;;;12.07;4.33;;;;;;;;;;5023490;28;20468;-43
2022/10/29 09:27:40;;;;;;;16.97;4.50;;;;;;;;;;5034566;28;20421;-43
2022/10/29 09:30:15;;;;;;;7.73;4.53;;;;;;;;;;5025197;28;20434;-43
2022/10/29 09:32:50;;;;;;;8.33;4.43;;;;;;;;;;5024231;28;20412;-44
2022/10/29 09:35:18;;;;;;;15.90;4.33;;;;;;;;;;5022587;28;20485;-43
2022/10/29 09:37:47;;;;;;;9.37;4.57;;;;;;;;;;5021873;28;20417;-43
2022/10/29 09:40:16;;;;;;;10.13;4.40;;;;;;;;;;5021704;28;20414;-43
2022/10/29 09:42:43;;;;;;;11.70;4.53;;;;;;;;;;5018728;28;20485;-43
2022/10/29 09:45:13;;;;;;;10.90;4.53;;;;;;;;;;5021530;28;20529;-43
2022/10/29 09:47:53;;;;;;;7.93;4.43;;;;;;;;;;5024653;28;20418;-43
2022/10/29 09:50:19;;;;;;;14.30;4.00;;;;;;;;;;5018538;28;20926;-43
2022/10/29 09:52:46;;;;;;;9.90;4.10;;;;;;;;;;5023099;28;20497;-43
2022/10/29 09:55:26;;;;;;;6.80;4.73;;;;;;;;;;5020042;28;20469;-43
2022/10/29 09:57:53;;;;;;;11.57;4.70;;;;;;;;;;5018905;28;20460;-43
2022/10/29 10:00:23;;;;;;;11.63;3.93;;;;;;;;;;5024602;28;20421;-44
2022/10/29 10:03:11;;;;;;;8.27;3.90;;;;;;;;;;5023177;28;20465;-44
2022/10/29 10:05:55;;;;;;;10.17;4.00;;;;;;;;;;5019356;28;20452;-43
2022/10/29 10:08:21;;;;;;;14.07;4.83;;;;;;;;;;5011987;28;20507;-44
2022/10/29 10:10:53;;;;;;;13.00;4.43;;;;;;;;;;5020522;28;20906;-43
2022/10/29 10:13:20;;;;;;;6.23;3.90;;;;;;;;;;5020399;28;20795;-44
2022/10/29 10:15:49;;;;;;;12.00;4.37;;;;;;;;;;5025253;28;20424;-43
2022/10/29 10:18:15;;;;;;;13.00;5.00;;;;;;;;;;5015939;28;20419;-44
2022/10/29 10:20:45;;;;;;;9.70;3.73;;;;;;;;;;5018250;28;20425;-44
2022/10/29 10:23:22;;;;;;;9.17;4.30;;;;;;;;;;5020663;28;20506;-44
2022/10/29 10:25:49;;;;;;;10.43;4.20;;;;;;;;;;5020393;28;20484;-44
2022/10/29 10:28:17;;;;;;;11.23;4.40;;;;;;;;;;5050637;23;20495;-46
2022/10/29 10:30:44;;;;;;;9.40;4.93;;;;;;;;;;4991713;28;20466;-45
2022/10/29 10:33:23;;;;;;;17.80;5.23;;;;;;;;;;5000582;28;20415;-46
2022/10/29 10:35:49;;;;;;;9.37;6.13;;;;;;;;;;4997635;28;20406;-45
2022/10/29 10:38:15;;;;;;;11.10;4.53;;;;;;;;;;4997070;28;20432;-46
2022/10/29 10:43:23;;;;;;;17.73;5.15;;;;;;;;;;5752552;23;20464;-46
2022/10/29 10:45:54;;;;;;;9.93;4.90;;;;;;;;;;4991156;28;20208;-43
2022/10/29 10:48:22;;;;;;;7.33;4.40;;;;;;;;;;5002189;28;20877;-45
2022/10/29 10:50:48;;;;;;;8.23;4.60;;;;;;;;;;5000657;28;20416;-44
2022/10/29 10:53:19;;;;;;;12.77;4.97;;;;;;;;;;5000806;28;20517;-44
2022/10/29 10:55:58;;;;;;;17.70;5.00;;;;;;;;;;4997177;28;20453;-46
2022/10/29 10:58:27;;;;;;;10.63;4.93;;;;;;;;;;5002401;28;20442;-46
2022/10/29 11:00:56;;;;;;;21.13;5.87;;;;;;;;;;5001688;28;20454;-46
2022/10/29 11:03:34;;;;;;;8.43;4.20;;;;;;;;;;4994507;28;20933;-46
2022/10/29 11:06:08;;;;;;;8.33;5.10;;;;;;;;;;4992091;28;20415;-43
2022/10/29 11:08:36;;;;;;;11.70;4.40;;;;;;;;;;4996447;28;20407;-46
2022/10/29 11:11:09;;;;;;;18.00;5.37;;;;;;;;;;5002159;28;20435;-44
2022/10/29 11:13:38;;;;;;;9.70;3.70;;;;;;;;;;4992751;28;20794;-44
2022/10/29 11:16:12;;;;;;;9.13;4.27;;;;;;;;;;5000007;28;20443;-46
2022/10/29 11:18:40;;;;;;;10.30;4.20;;;;;;;;;;4994571;28;20767;-44
2022/10/29 11:21:35;;;;;;;11.27;4.30;;;;;;;;;;5003274;28;20983;-44
2022/10/29 11:24:07;;;;;;;7.23;3.80;;;;;;;;;;4992620;28;20459;-44
2022/10/29 11:26:41;;;;;;;21.63;5.13;;;;;;;;;;5003217;28;20459;-44
2022/10/29 11:29:18;;;;;;;7.77;3.80;;;;;;;;;;5004215;28;20984;-44
2022/10/29 11:31:49;;;;;;;16.77;4.70;;;;;;;;;;4998910;28;20420;-44
2022/10/29 11:34:18;;;;;;;10.37;4.20;;;;;;;;;;5004822;28;20444;-44
2022/10/29 11:36:54;;;;;;;12.00;3.90;;;;;;;;;;5007313;28;20868;-44
2022/10/29 11:39:26;;;;;;;15.10;4.70;;;;;;;;;;5004692;28;20420;-44
2022/10/29 11:41:56;;;;;;;6.10;3.70;;;;;;;;;;5005469;28;20451;-43
2022/10/29 11:44:22;;;;;;;23.93;6.67;;;;;;;;;;5004244;28;20471;-47
2022/10/29 11:46:54;;;;;;;11.87;5.00;;;;;;;;;;5004266;28;21098;-44
2022/10/29 11:49:32;;;;;;;9.93;5.27;;;;;;;;;;5004696;28;20437;-44
2022/10/29 11:52:07;;;;;;;7.30;4.33;;;;;;;;;;5003569;28;20447;-44
2022/10/29 11:54:58;;;;;;;13.30;4.03;;;;;;;;;;4997535;28;20435;-46
2022/10/29 11:57:46;;;;;;;14.57;4.50;;;;;;;;;;5008108;28;20414;-44
2022/10/29 12:00:12;;;;;;;9.67;3.60;;;;;;;;;;5005933;28;20498;-44
2022/10/29 12:02:48;;;;;;;11.00;4.03;;;;;;;;;;5000570;28;20482;-44
2022/10/29 12:05:17;;;;;;;8.50;3.40;;;;;;;;;;5005701;28;20781;-44
2022/10/29 12:08:02;;;;;;;11.27;4.60;;;;;;;;;;5006704;28;20825;-44
2022/10/29 12:10:37;;;;;;;10.20;4.30;;;;;;;;;;5002823;28;20496;-47
2022/10/29 12:13:08;;;;;;;7.83;4.27;;;;;;;;;;5001252;28;20427;-44
2022/10/29 12:15:37;;;;;;;8.10;3.30;;;;;;;;;;4995963;28;20403;-47
2022/10/29 12:18:17;;;;;;;12.03;3.47;;;;;;;;;;5001900;28;20419;-47
2022/10/29 12:20:58;;;;;;;9.03;3.70;;;;;;;;;;4996811;28;20419;-44
2022/10/29 12:23:24;;;;;;;10.70;3.33;;;;;;;;;;5007761;28;20962;-44
2022/10/29 12:25:50;;;;;;;8.63;4.17;;;;;;;;;;5003065;28;20409;-44
2022/10/29 12:28:33;;;;;;;13.27;4.00;;;;;;;;;;5005911;28;20176;-44
2022/10/29 12:31:08;;;;;;;9.07;3.70;;;;;;;;;;5003206;28;20230;-44
2022/10/29 12:33:37;;;;;;;11.47;4.37;;;;;;;;;;4994681;28;20430;-47
2022/10/29 12:36:03;;;;;;;7.03;3.27;;;;;;;;;;5008243;28;20922;-44
2022/10/29 12:38:38;;;;;;;7.60;3.73;;;;;;;;;;5001695;28;20441;-44
2022/10/29 12:41:14;;;;;;;11.83;3.50;;;;;;;;;;5000692;28;20466;-44
2022/10/29 12:43:41;;;;;;;6.17;3.50;;;;;;;;;;4995284;28;20436;-43
2022/10/29 12:46:13;;;;;;;7.07;3.97;;;;;;;;;;5002311;28;20501;-44
2022/10/29 12:48:52;;;;;;;11.93;4.20;;;;;;;;;;5005815;28;20778;-46
2022/10/29 12:51:33;;;;;;;11.17;4.23;;;;;;;;;;5002095;28;20939;-45
2022/10/29 12:53:59;;;;;;;10.90;3.60;;;;;;;;;;5002698;28;20423;-44
2022/10/29 12:56:25;;;;;;;11.00;4.47;;;;;;;;;;5005055;28;20412;-44
2022/10/29 12:58:52;;;;;;;10.87;3.40;;;;;;;;;;5002099;28;20173;-44
2022/10/29 13:01:30;;;;;;;15.00;4.60;;;;;;;;;;5003913;28;20455;-44
2022/10/29 13:03:59;;;;;;;12.50;4.33;;;;;;;;;;5006831;28;20819;-44
2022/10/29 13:06:43;;;;;;;14.43;4.33;;;;;;;;;;5002409;28;20404;-47
2022/10/29 13:09:15;;;;;;;9.70;4.80;;;;;;;;;;5000593;28;20661;-44
2022/10/29 13:12:01;;;;;;;17.33;5.30;;;;;;;;;;5002316;28;20419;-44
2022/10/29 13:14:36;;;;;;;9.27;3.80;;;;;;;;;;5004359;28;20434;-44
2022/10/29 13:17:04;;;;;;;12.33;4.00;;;;;;;;;;5004278;28;20457;-43
2022/10/29 13:19:30;;;;;;;18.73;5.50;;;;;;;;;;5001655;28;20466;-46
2022/10/29 13:22:04;;;;;;;13.70;4.77;;;;;;;;;;5000486;28;20871;-44
2022/10/29 13:24:30;;;;;;;11.70;4.17;;;;;;;;;;4998097;28;20195;-44
2022/10/29 13:26:56;;;;;;;8.63;3.63;;;;;;;;;;4995399;28;20419;-43
2022/10/29 13:29:40;;;;;;;9.87;4.60;;;;;;;;;;5004091;28;20412;-43
2022/10/29 13:32:06;;;;;;;14.70;5.70;;;;;;;;;;4996586;28;20842;-44
2022/10/29 13:34:51;;;;;;;13.03;3.93;;;;;;;;;;5001786;28;20981;-44
2022/10/29 13:37:36;;;;;;;17.13;4.73;;;;;;;;;;5008295;28;20837;-44
2022/10/29 13:40:20;;;;;;;10.90;3.93;;;;;;;;;;4995562;28;20466;-47
2022/10/29 13:42:52;;;;;;;10.60;3.90;;;;;;;;;;4993599;28;20455;-45
2022/10/29 13:45:19;;;;;;;11.40;4.00;;;;;;;;;;5000989;28;20412;-44
2022/10/29 13:47:45;;;;;;;11.13;4.33;;;;;;;;;;5003713;28;20435;-44
2022/10/29 13:50:14;;;;;;;17.00;4.00;;;;;;;;;;5001867;28;20776;-45
2022/10/29 13:52:40;;;;;;;11.13;4.13;;;;;;;;;;5001911;28;20459;-47
2022/10/29 13:55:07;;;;;;;13.13;4.07;;;;;;;;;;5002800;28;20415;-47
2022/10/29 13:57:39;;;;;;;15.93;4.10;;;;;;;;;;4997103;28;20415;-44
2022/10/29 14:00:11;;;;;;;10.87;3.30;;;;;;;;;;5004651;28;20430;-50
2022/10/29 14:02:38;;;;;;;8.70;4.10;;;;;;;;;;5004792;28;20490;-47
2022/10/29 14:05:07;;;;;;;7.63;3.70;;;;;;;;;;4999820;28;20451;-45
2022/10/29 14:07:51;;;;;;;6.50;4.57;;;;;;;;;;4993503;28;20404;-44
2022/10/29 14:10:21;;;;;;;9.50;4.13;;;;;;;;;;5001092;28;20896;-44
2022/10/29 14:12:48;;;;;;;9.10;4.70;;;;;;;;;;5000431;28;20396;-44
2022/10/29 14:15:14;;;;;;;11.33;4.37;;;;;;;;;;5002042;28;20416;-46
2022/10/29 14:17:41;;;;;;;10.03;3.90;;;;;;;;;;5004124;28;20463;-46
2022/10/29 14:20:26;;;;;;;10.50;4.33;;;;;;;;;;5000444;28;20934;-46
2022/10/29 14:22:53;;;;;;;11.87;4.93;;;;;;;;;;5000220;28;20542;-46
2022/10/29 14:25:26;;;;;;;9.10;3.83;;;;;;;;;;4996106;28;20447;-46
2022/10/29 14:28:09;;;;;;;9.87;3.80;;;;;;;;;;5004150;28;20407;-46
2022/10/29 14:30:35;;;;;;;14.03;3.53;;;;;;;;;;4994232;28;20403;-46
2022/10/29 14:33:01;;;;;;;6.77;4.40;;;;;;;;;;4999192;28;20477;-46
2022/10/29 14:35:27;;;;;;;9.37;4.10;;;;;;;;;;5002438;28;20840;-46
2022/10/29 14:37:55;;;;;;;5.93;3.80;;;;;;;;;;5001548;28;20506;-45
2022/10/29 14:40:22;;;;;;;12.27;3.90;;;;;;;;;;5001541;28;20930;-46
2022/10/29 14:42:52;;;;;;;8.23;3.50;;;;;;;;;;5000141;28;20450;-46
2022/10/29 14:45:29;;;;;;;14.97;4.40;;;;;;;;;;4995367;28;20790;-46